Flight Track Log - Related Links

Times and Time Zones

All times are in EDT time to prevent confusion due to time zone crossing. See the SKW4659 flight status page for this flight to view local times or setup timezone preferences in your user account.

Time Position Orientation Groundspeed Altitude Reporting Facility
EDT Latitude Longitude Course Direction KTS MPH feet Rate Location/Type
Wed 10:20:19 AM 42.8683 -85.5961 304° West 202 232 3,700  Level Chicago Center
Wed 10:21:00 AM 43.0857 -85.8584 311° West  Level FlightAware Approximate
Wed 10:21:21 AM 42.9153 -85.6625 314° West 246 283 5,300  Level Chicago Center
Wed 10:22:00 AM 43.1614 -85.9733 314° West  Level FlightAware Approximate
Wed 10:22:23 AM 42.9703 -85.7561 309° West 263 303 8,500  Level Chicago Center
Wed 10:23:00 AM 43.2397 -86.0852 314° West  Level FlightAware Approximate
Wed 10:23:25 AM 43.0242 -85.8331 314° West 282 325 10,500  Level Chicago Center
Wed 10:24:00 AM 43.3012 -86.1857 305° West  Level FlightAware Approximate
Wed 10:24:27 AM 43.0822 -85.9167 314° West 308 354 12,200  Level Chicago Center
Wed 10:25:29 AM 43.1394 -86.0039 312° West 318 366 14,100 1,935 Climbing Chicago Center
Wed 10:26:31 AM 43.2114 -86.1117 313° West 322 371 16,200 1,742 Climbing Chicago Center
Wed 10:27:33 AM 43.2733 -86.2047 312° West 331 381 17,700 1,200 Climbing Chicago Center
Wed 10:28:36 AM 43.3367 -86.2994 313° West 336 387 18,700 1,056 Climbing Chicago Center
Wed 10:29:38 AM 43.4022 -86.3975 313° West 348 400 19,900 1,210 Climbing Chicago Center
Wed 10:30:40 AM 43.4689 -86.4986 312° West 356 410 21,200 1,258 Climbing Chicago Center
Wed 10:31:42 AM 43.5497 -86.6236 312° West 365 420 22,500 1,161 Climbing Chicago Center
Wed 10:32:44 AM 43.6203 -86.7286 313° West 373 429 23,600 968 Climbing Chicago Center
Wed 10:33:46 AM 43.6928 -86.8336 314° West 379 436 24,500 919 Climbing Chicago Center
Wed 10:34:48 AM 43.7636 -86.9439 312° West 384 442 25,500 726 Climbing Chicago Center
Wed 10:35:50 AM 43.8339 -87.0564 311° West 387 445 26,000 242 Climbing Chicago Center
Wed 10:36:52 AM 43.9064 -87.1689 312° West 392 451 26,000  Level Chicago Center
Wed 10:37:22 AM 43.9492 -87.2350 312° West 390 449 26,000  Level Minneapolis Center
Wed 10:38:24 AM 44.0219 -87.3475 312° West 388 447 26,000  Level Minneapolis Center
Wed 10:39:26 AM 44.0928 -87.4594 311° West 386 444 26,000  Level Minneapolis Center
Wed 10:40:28 AM 44.1758 -87.5894 312° West 386 444 26,000  Level Minneapolis Center
Wed 10:41:30 AM 44.2450 -87.6986 312° West 379 436 26,000  Level Minneapolis Center
Wed 10:42:32 AM 44.3117 -87.8047 311° West 368 423 26,000  Level Minneapolis Center
Wed 10:43:34 AM 44.3767 -87.9083 311° West 359 413 26,000  Level Minneapolis Center
Wed 10:44:36 AM 44.4400 -88.0100 311° West 351 404 26,000  Level Minneapolis Center
Wed 10:45:38 AM 44.5122 -88.1275 311° West 342 394 26,000  Level Minneapolis Center
Wed 10:46:40 AM 44.5606 -88.2408 301° West 347 399 26,000  Level Minneapolis Center
Wed 10:47:42 AM 44.5756 -88.3700 279° West 340 391 26,000  Level Minneapolis Center
Wed 10:48:44 AM 44.5903 -88.5000 279° West 342 394 26,000  Level Minneapolis Center
Wed 10:49:46 AM 44.6067 -88.6328 280° West 346 398 26,000  Level Minneapolis Center
Wed 10:50:49 AM 44.6244 -88.7853 279° West 342 394 26,000  Level Minneapolis Center
Wed 10:51:51 AM 44.6397 -88.9186 279° West 345 397 26,000  Level Minneapolis Center
Wed 10:52:52 AM 44.6517 -89.0306 279° West 350 403 26,000  Level Minneapolis Center
Wed 10:53:55 AM 44.6686 -89.1847 279° West 346 398 26,000  Level Minneapolis Center
Wed 10:54:57 AM 44.6836 -89.3186 279° West 349 402 26,000  Level Minneapolis Center
Wed 10:55:59 AM 44.6992 -89.4733 278° West 344 396 26,000  Level Minneapolis Center
Wed 10:57:01 AM 44.7147 -89.6067 279° West 346 398 26,000  Level Minneapolis Center
Wed 10:58:03 AM 44.7292 -89.7394 279° West 344 396 26,000  Level Minneapolis Center
Wed 10:59:05 AM 44.7436 -89.8508 280° West 349 402 26,000  Level Minneapolis Center
Wed 11:00:07 AM 44.7647 -90.0064 281° West 347 399 26,000  Level Minneapolis Center
Wed 11:01:10 AM 44.7858 -90.1617 281° West 347 399 26,000  Level Minneapolis Center
Wed 11:02:12 AM 44.8003 -90.2731 280° West 348 400 26,000  Level Minneapolis Center
Wed 11:03:14 AM 44.8214 -90.4322 281° West 352 405 26,000  Level Minneapolis Center
Wed 11:04:16 AM 44.8386 -90.5683 280° West 352 405 26,000  Level Minneapolis Center
Wed 11:05:19 AM 44.8578 -90.7042 281° West 354 407 26,000  Level Minneapolis Center
Wed 11:06:21 AM 44.8750 -90.8414 280° West 357 411 26,000  Level Minneapolis Center
Wed 11:07:23 AM 44.8956 -91.0042 280° West 352 405 26,000  Level Minneapolis Center
Wed 11:08:25 AM 44.9125 -91.1417 280° West 355 409 26,000  Level Minneapolis Center
Wed 11:09:27 AM 44.9289 -91.2786 280° West 355 409 26,000  Level Minneapolis Center
Wed 11:10:29 AM 44.9461 -91.4161 280° West 358 412 26,000 -629 Level Minneapolis Center
Wed 11:11:31 AM 44.9636 -91.5531 280° West 356 410 24,700 -2,226 Descending Minneapolis Center
Wed 11:12:33 AM 44.9847 -91.7253 280° West 367 422 21,400 -2,855 Descending Minneapolis Center
Wed 11:13:35 AM 45.0011 -91.8653 279° West 366 421 18,800 -2,371 Descending Minneapolis Center
Wed 11:14:37 AM 45.0164 -91.9989 279° West 348 400 16,500 -2,323 Descending Minneapolis Center
Wed 11:15:39 AM 45.0311 -92.1286 279° West 337 388 14,000 -2,177 Descending Minneapolis Center
Wed 11:16:41 AM 45.0422 -92.2272 279° West 324 373 12,000 -1,065 Descending Minneapolis Center
Wed 11:18:45 AM 45.0133 -92.5019 262° West 285 328 10,700 -935 Descending Minneapolis Center
Wed 11:19:47 AM 44.9733 -92.5900 237° Southwest 266 306 9,100 -1,597 Descending Minneapolis Center
Wed 11:20:49 AM 44.9361 -92.6761 239° Southwest 259 298 7,400 -1,016 Descending Minneapolis Center
Wed 11:21:51 AM 44.8997 -92.7586 238° Southwest 249 287 7,000 -677 Descending Minneapolis Center
Wed 11:22:53 AM 44.8639 -92.8419 239° Southwest 250 288 6,000 -871 Descending Minneapolis Center
Wed 11:23:55 AM 44.8369 -92.9069 240° Southwest 242 278 5,200 -774 Descending Minneapolis Center

Login

Don't have an account? Register now (free) for customized features, flight alerts, and more!